createdAt,value
2019-05-23T00:01:46.169Z,79.55
2019-05-23T00:04:23.811Z,79.47
2019-05-23T00:06:54.042Z,79.76
2019-05-23T00:09:24.928Z,79.72
2019-05-23T00:12:12.103Z,79.96
2019-05-23T00:14:44.821Z,80.16
2019-05-23T00:17:18.840Z,80.15
2019-05-23T00:19:50.392Z,80.60
2019-05-23T00:22:20.045Z,80.51
2019-05-23T00:24:50.736Z,81.02
2019-05-23T00:27:21.776Z,81.34
2019-05-23T00:29:54.918Z,81.50
2019-05-23T00:32:43.014Z,81.66
2019-05-23T00:35:14.357Z,81.79
2019-05-23T00:37:44.749Z,82.14
2019-05-23T00:40:17.126Z,82.25
2019-05-23T00:42:46.887Z,82.03
2019-05-23T00:45:18.139Z,82.39
2019-05-23T00:47:47.907Z,82.56
2019-05-23T00:50:20.809Z,82.58
2019-05-23T00:52:51.766Z,83.16
2019-05-23T00:55:22.473Z,83.07
2019-05-23T00:57:52.637Z,82.87
2019-05-23T01:00:24.454Z,82.96
2019-05-23T01:02:55.585Z,83.12
2019-05-23T01:05:28.037Z,83.19
2019-05-23T01:07:57.914Z,83.12
2019-05-23T01:10:28.134Z,83.29
2019-05-23T01:12:58.129Z,83.54
2019-05-23T01:15:27.767Z,83.40
2019-05-23T01:17:57.622Z,83.57
2019-05-23T01:20:31.662Z,83.67
2019-05-23T01:23:05.676Z,83.39
2019-05-23T01:25:36.982Z,83.71
2019-05-23T01:28:08.276Z,84.01
2019-05-23T01:30:46.146Z,84.05
2019-05-23T01:33:17.709Z,84.30
2019-05-23T01:35:49.010Z,84.61
2019-05-23T01:38:21.129Z,85.16
2019-05-23T01:40:51.240Z,85.11
2019-05-23T01:43:22.826Z,84.66
2019-05-23T01:45:52.589Z,84.89
2019-05-23T01:48:23.089Z,85.02
2019-05-23T01:50:53.477Z,85.08
2019-05-23T01:53:23.773Z,84.99
2019-05-23T01:55:53.404Z,84.91
2019-05-23T01:58:23.248Z,85.06
2019-05-23T02:00:53.664Z,85.08
2019-05-23T02:03:23.583Z,84.94
2019-05-23T02:05:53.420Z,85.15
2019-05-23T02:08:23.281Z,85.10
2019-05-23T02:10:53.604Z,84.95
2019-05-23T02:13:23.236Z,84.92
2019-05-23T02:15:53.665Z,84.74
2019-05-23T02:18:25.076Z,84.88
2019-05-23T02:20:55.371Z,84.74
2019-05-23T02:23:26.085Z,84.75
2019-05-23T02:25:57.732Z,84.83
2019-05-23T02:28:28.018Z,85.03
2019-05-23T02:30:58.311Z,85.31
2019-05-23T02:33:28.528Z,85.61
2019-05-23T02:35:58.793Z,85.53
2019-05-23T02:38:30.177Z,85.60
2019-05-23T02:41:05.166Z,85.91
2019-05-23T02:43:36.097Z,85.80
2019-05-23T02:46:08.060Z,85.88
2019-05-23T02:48:46.035Z,85.79
2019-05-23T02:51:19.636Z,86.05
2019-05-23T02:53:53.949Z,86.08
2019-05-23T02:56:24.921Z,86.01
2019-05-23T02:59:13.370Z,86.24
2019-05-23T03:01:53.254Z,86.43
2019-05-23T03:04:25.605Z,86.57
2019-05-23T03:06:56.298Z,86.32
2019-05-23T03:09:29.739Z,86.58
2019-05-23T03:12:02.172Z,86.67
2019-05-23T03:14:36.752Z,86.61
2019-05-23T03:17:11.128Z,86.83
2019-05-23T03:19:57.981Z,87.07
2019-05-23T03:22:34.369Z,86.93
2019-05-23T03:25:08.819Z,86.83
2019-05-23T03:27:45.001Z,87.09
2019-05-23T03:30:18.455Z,87.08
2019-05-23T03:32:52.381Z,87.15
2019-05-23T03:35:26.316Z,87.19
2019-05-23T03:37:56.418Z,87.23
2019-05-23T03:40:26.579Z,87.25
2019-05-23T03:42:56.999Z,87.03
2019-05-23T03:45:28.277Z,86.95
2019-05-23T03:47:58.042Z,86.83
2019-05-23T03:50:28.689Z,86.64
2019-05-23T03:52:58.834Z,86.91
2019-05-23T03:55:30.947Z,87.05
2019-05-23T03:58:00.885Z,87.16
2019-05-23T04:00:36.369Z,87.32
2019-05-23T04:03:07.780Z,87.20
2019-05-23T04:05:39.954Z,87.17
2019-05-23T04:08:11.874Z,87.16
2019-05-23T04:10:42.083Z,87.37
2019-05-23T04:13:13.044Z,87.04
2019-05-23T04:15:42.825Z,87.33
2019-05-23T04:18:13.153Z,87.30
2019-05-23T04:20:43.059Z,87.17
2019-05-23T04:23:14.071Z,87.21
2019-05-23T04:25:43.779Z,87.13
2019-05-23T04:28:17.645Z,87.28
2019-05-23T04:30:47.912Z,87.39
2019-05-23T04:33:17.979Z,87.46
2019-05-23T04:35:48.062Z,87.52
2019-05-23T04:38:19.099Z,87.73
2019-05-23T04:40:51.639Z,87.80
2019-05-23T04:43:21.288Z,87.76
2019-05-23T04:45:51.294Z,87.99
2019-05-23T04:48:21.442Z,87.95
2019-05-23T04:50:51.630Z,87.98
2019-05-23T04:53:21.653Z,87.93
2019-05-23T04:55:51.689Z,88.18
2019-05-23T04:58:21.469Z,88.01
2019-05-23T05:00:51.340Z,88.01
2019-05-23T05:03:22.351Z,88.25
2019-05-23T05:05:52.219Z,88.33
2019-05-23T05:08:22.281Z,88.12
2019-05-23T05:10:52.508Z,88.39
2019-05-23T05:13:22.706Z,88.16
2019-05-23T05:15:52.370Z,88.24
2019-05-23T05:18:22.423Z,88.30
2019-05-23T05:20:52.132Z,87.98
2019-05-23T05:23:22.315Z,87.80
2019-05-23T05:25:52.004Z,87.81
2019-05-23T05:28:21.785Z,87.67
2019-05-23T05:30:51.886Z,87.50
2019-05-23T05:33:21.644Z,87.24
2019-05-23T05:35:51.404Z,86.97
2019-05-23T05:38:21.037Z,87.05
2019-05-23T05:40:51.733Z,86.91
2019-05-23T05:43:21.352Z,86.81
2019-05-23T05:45:51.539Z,86.41
2019-05-23T05:48:21.340Z,86.41
2019-05-23T05:50:51.188Z,86.41
2019-05-23T05:53:20.886Z,86.05
2019-05-23T05:55:50.805Z,86.20
2019-05-23T05:58:20.433Z,86.12
2019-05-23T06:00:54.446Z,85.51
2019-05-23T06:03:24.496Z,85.28
2019-05-23T06:06:05.108Z,85.08
2019-05-23T06:08:36.705Z,85.05
2019-05-23T06:11:08.098Z,84.85
2019-05-23T06:13:37.761Z,84.80
2019-05-23T06:16:07.532Z,84.73
2019-05-23T06:18:37.299Z,84.83
2019-05-23T06:21:07.568Z,84.76
2019-05-23T06:23:37.432Z,84.55
2019-05-23T06:26:07.123Z,84.51
2019-05-23T06:28:38.642Z,83.91
2019-05-23T06:31:08.683Z,83.65
2019-05-23T06:33:38.330Z,83.65
2019-05-23T06:36:08.120Z,83.47
2019-05-23T06:38:37.908Z,83.33
2019-05-23T06:41:08.066Z,83.43
2019-05-23T06:43:38.530Z,83.22
2019-05-23T06:46:08.337Z,82.95
2019-05-23T06:48:37.971Z,82.80
2019-05-23T06:51:07.602Z,82.98
2019-05-23T06:53:37.279Z,83.28
2019-05-23T06:56:09.128Z,83.69
2019-05-23T06:58:39.201Z,83.38
2019-05-23T07:01:08.986Z,82.95
2019-05-23T07:03:43.069Z,83.05
2019-05-23T07:06:13.454Z,83.06
2019-05-23T07:08:43.209Z,83.00
2019-05-23T07:11:13.050Z,82.70
2019-05-23T07:13:43.800Z,82.64
2019-05-23T07:16:13.595Z,82.12
2019-05-23T07:18:44.719Z,82.25
2019-05-23T07:21:15.299Z,82.08
2019-05-23T07:23:46.385Z,82.24
2019-05-23T07:26:16.386Z,81.94
2019-05-23T07:28:46.106Z,81.76
2019-05-23T07:31:16.830Z,81.25
2019-05-23T07:34:00.976Z,80.94
2019-05-23T07:36:18.106Z,80.92
2019-05-23T07:38:47.905Z,80.92
2019-05-23T07:41:17.988Z,80.94
2019-05-23T07:43:47.693Z,80.32
2019-05-23T07:46:17.388Z,80.58
2019-05-23T07:48:47.574Z,80.59
2019-05-23T07:51:17.353Z,80.40
2019-05-23T07:54:05.566Z,80.67
2019-05-23T07:56:39.823Z,80.40
2019-05-23T07:59:11.120Z,79.92
2019-05-23T08:01:44.275Z,79.87
2019-05-23T08:04:21.878Z,79.72
2019-05-23T08:06:48.931Z,80.30
2019-05-23T08:09:19.645Z,80.23
2019-05-23T08:11:50.023Z,80.39
2019-05-23T08:14:20.026Z,80.16
2019-05-23T08:16:49.684Z,80.24
2019-05-23T08:19:19.948Z,80.43
2019-05-23T08:21:49.822Z,80.42
2019-05-23T08:24:20.133Z,80.54
2019-05-23T08:26:51.238Z,80.55
2019-05-23T08:29:25.929Z,80.38
2019-05-23T08:31:53.938Z,80.31
2019-05-23T08:34:40.511Z,80.07
2019-05-23T08:36:55.729Z,79.75
2019-05-23T08:39:26.921Z,79.40
2019-05-23T08:41:56.610Z,79.43
2019-05-23T08:44:26.712Z,79.75
2019-05-23T08:46:56.578Z,79.65
2019-05-23T08:49:26.840Z,79.79
2019-05-23T08:51:56.714Z,80.29
2019-05-23T08:54:26.747Z,80.09
2019-05-23T08:56:56.570Z,80.45
2019-05-23T08:59:26.644Z,80.61
2019-05-23T09:01:56.716Z,80.67
2019-05-23T09:05:07.750Z,80.25
2019-05-23T09:07:16.219Z,80.22
2019-05-23T09:09:46.912Z,80.01
2019-05-23T09:12:16.890Z,80.12
2019-05-23T09:14:46.940Z,80.32
2019-05-23T09:17:17.023Z,80.26
2019-05-23T09:19:46.698Z,80.38
2019-05-23T09:22:21.149Z,80.39
2019-05-23T09:24:50.864Z,80.42
2019-05-23T09:27:20.576Z,80.40
2019-05-23T09:29:50.268Z,80.33
2019-05-23T09:32:20.173Z,79.90
2019-05-23T09:34:49.957Z,79.62
2019-05-23T09:37:20.229Z,79.68
2019-05-23T09:39:50.347Z,79.37
2019-05-23T09:42:20.217Z,79.41
2019-05-23T09:44:49.917Z,79.31
2019-05-23T09:47:19.880Z,79.34
2019-05-23T09:49:56.618Z,79.08
2019-05-23T09:52:21.553Z,79.06
2019-05-23T09:54:51.355Z,79.23
2019-05-23T09:57:21.048Z,79.11
2019-05-23T09:59:50.768Z,78.88
2019-05-23T10:02:20.888Z,78.76
2019-05-23T10:04:50.801Z,79.10
2019-05-23T10:07:20.854Z,78.91
2019-05-23T10:09:50.667Z,78.98
2019-05-23T10:12:22.586Z,78.88
2019-05-23T10:14:52.174Z,78.42
2019-05-23T10:17:22.940Z,78.37
2019-05-23T10:19:52.534Z,78.14
2019-05-23T10:22:22.238Z,78.11
2019-05-23T10:24:52.002Z,78.24
2019-05-23T10:27:22.928Z,78.35
2019-05-23T10:29:55.831Z,78.40
2019-05-23T10:33:17.759Z,78.22
2019-05-23T10:35:20.141Z,78.34
2019-05-23T10:37:49.875Z,78.13
2019-05-23T10:40:21.168Z,77.79
2019-05-23T10:42:50.932Z,77.73
2019-05-23T10:45:20.891Z,77.52
2019-05-23T10:47:50.506Z,77.61
2019-05-23T10:50:22.859Z,77.45
2019-05-23T10:52:52.873Z,77.26
2019-05-23T10:55:22.503Z,77.11
2019-05-23T10:57:52.220Z,77.32
2019-05-23T11:00:23.494Z,77.28
2019-05-23T11:02:53.117Z,77.43
2019-05-23T11:05:23.079Z,77.51
2019-05-23T11:07:52.862Z,77.63
2019-05-23T11:10:24.372Z,77.44
2019-05-23T11:12:53.996Z,77.45
2019-05-23T11:15:23.729Z,77.65
2019-05-23T11:17:54.243Z,77.99
2019-05-23T11:20:24.853Z,78.00
2019-05-23T11:22:56.476Z,78.02
2019-05-23T11:25:26.232Z,78.25
2019-05-23T11:27:55.935Z,78.11
2019-05-23T11:30:27.518Z,78.05
2019-05-23T11:32:57.485Z,78.28
2019-05-23T11:35:27.362Z,78.32
2019-05-23T11:37:57.029Z,78.21
2019-05-23T11:40:26.994Z,78.34
2019-05-23T11:42:56.636Z,78.28
2019-05-23T11:45:29.443Z,78.09
2019-05-23T11:47:59.231Z,78.15
2019-05-23T11:50:29.437Z,77.84
2019-05-23T11:52:59.170Z,77.79
2019-05-23T11:55:28.889Z,77.64
2019-05-23T11:57:59.165Z,77.36
2019-05-23T12:00:54.681Z,77.36
2019-05-23T12:03:24.534Z,77.28
2019-05-23T12:05:54.489Z,76.99
2019-05-23T12:08:24.458Z,77.05
2019-05-23T12:10:54.252Z,76.37
2019-05-23T12:13:23.919Z,75.88
2019-05-23T12:15:53.607Z,75.63
2019-05-23T12:18:23.320Z,75.45
2019-05-23T12:20:52.953Z,75.42
2019-05-23T12:23:23.240Z,75.12
2019-05-23T12:25:54.311Z,75.32
2019-05-23T12:28:24.012Z,75.46
2019-05-23T12:30:53.927Z,75.61
2019-05-23T12:33:23.633Z,75.76
2019-05-23T12:35:53.322Z,75.69
2019-05-23T12:38:22.990Z,75.54
2019-05-23T12:40:53.471Z,75.40
2019-05-23T12:43:23.552Z,75.48
2019-05-23T12:45:53.388Z,75.83
2019-05-23T12:48:24.681Z,76.05
2019-05-23T12:51:11.167Z,76.41
2019-05-23T12:53:40.796Z,76.07
2019-05-23T12:56:10.494Z,76.34
2019-05-23T12:58:41.828Z,76.26
2019-05-23T13:01:13.422Z,76.25
2019-05-23T13:03:43.837Z,76.15
2019-05-23T13:06:13.643Z,76.06
2019-05-23T13:08:43.278Z,76.30
2019-05-23T13:11:12.971Z,75.93
2019-05-23T13:13:42.649Z,75.75
2019-05-23T13:16:12.446Z,75.65
2019-05-23T13:18:42.065Z,75.57
2019-05-23T13:21:12.101Z,75.25
2019-05-23T13:23:41.793Z,75.17
2019-05-23T13:26:12.120Z,74.32
2019-05-23T13:28:41.872Z,74.26
2019-05-23T13:31:11.508Z,74.38
2019-05-23T13:33:41.405Z,73.93
2019-05-23T13:36:11.328Z,72.99
2019-05-23T13:38:41.167Z,72.74
2019-05-23T13:41:10.801Z,72.53
2019-05-23T13:43:40.476Z,72.36
2019-05-23T13:46:10.367Z,72.09
2019-05-23T13:48:40.077Z,72.12
2019-05-23T13:51:09.815Z,72.22
2019-05-23T13:53:39.505Z,71.96
2019-05-23T13:56:09.217Z,71.78
2019-05-23T13:58:39.498Z,71.16
2019-05-23T14:01:10.147Z,70.41
2019-05-23T14:03:40.459Z,70.00
2019-05-23T14:06:10.530Z,70.42
2019-05-23T14:08:40.204Z,70.52
2019-05-23T14:11:09.980Z,70.10
2019-05-23T14:13:39.885Z,69.96
2019-05-23T14:16:09.794Z,69.60
2019-05-23T14:18:39.516Z,69.18
2019-05-23T14:21:09.596Z,68.75
2019-05-23T14:23:39.212Z,68.47
2019-05-23T14:26:11.303Z,68.01
2019-05-23T14:28:41.299Z,68.02
2019-05-23T14:31:12.700Z,67.58
2019-05-23T14:33:44.177Z,67.10
2019-05-23T14:36:31.800Z,66.67
2019-05-23T14:39:00.323Z,66.18
2019-05-23T14:41:44.859Z,65.66
2019-05-23T14:44:03.274Z,64.97
2019-05-23T14:46:36.277Z,64.66
2019-05-23T14:49:07.859Z,64.33
2019-05-23T14:51:45.391Z,64.41
2019-05-23T14:54:19.741Z,63.91
2019-05-23T14:56:49.404Z,63.74
2019-05-23T14:59:19.978Z,63.21
2019-05-23T15:01:49.900Z,63.44
2019-05-23T15:04:19.657Z,62.77
2019-05-23T15:06:49.354Z,62.38
2019-05-23T15:09:21.280Z,62.33
2019-05-23T15:11:50.495Z,62.18
2019-05-23T15:14:20.250Z,62.12
2019-05-23T15:16:50.020Z,62.35
2019-05-23T15:19:38.090Z,61.89
2019-05-23T15:21:51.339Z,61.74
2019-05-23T15:24:21.652Z,61.09
2019-05-23T15:26:51.294Z,61.15
2019-05-23T15:29:20.975Z,60.95
2019-05-23T15:32:01.641Z,61.06
2019-05-23T15:34:21.981Z,61.34
2019-05-23T15:36:51.726Z,61.44
2019-05-23T15:39:22.198Z,61.28
2019-05-23T15:41:51.898Z,61.21
2019-05-23T15:44:27.243Z,61.13
2019-05-23T15:46:53.616Z,61.11
2019-05-23T15:49:23.337Z,61.02
2019-05-23T15:52:10.681Z,61.06
2019-05-23T15:54:51.284Z,60.88
2019-05-23T15:57:28.538Z,60.99
2019-05-23T16:00:26.621Z,60.61
2019-05-23T16:03:06.557Z,60.22
2019-05-23T16:05:36.930Z,59.70
2019-05-23T16:08:09.584Z,59.19
2019-05-23T16:10:39.397Z,59.24
2019-05-23T16:13:09.416Z,59.18
2019-05-23T16:15:39.164Z,59.01
2019-05-23T16:18:10.587Z,58.98
2019-05-23T16:20:40.192Z,58.90
2019-05-23T16:23:10.723Z,58.23
2019-05-23T16:25:46.010Z,58.36
2019-05-23T16:28:15.667Z,58.62
2019-05-23T16:30:45.630Z,58.80
2019-05-23T16:33:16.302Z,59.20
2019-05-23T16:35:46.164Z,58.97
2019-05-23T16:38:15.869Z,59.27
2019-05-23T16:40:47.625Z,59.36
2019-05-23T16:43:17.687Z,59.61
2019-05-23T16:45:47.326Z,59.98
2019-05-23T16:48:16.997Z,60.21
2019-05-23T16:50:46.858Z,60.20
2019-05-23T16:53:16.489Z,60.12
2019-05-23T16:55:53.537Z,60.30
2019-05-23T16:58:30.792Z,60.48
2019-05-23T17:01:24.220Z,60.65
2019-05-23T17:03:57.798Z,60.41
2019-05-23T17:06:34.961Z,60.14
2019-05-23T17:09:24.036Z,59.82
2019-05-23T17:14:41.111Z,59.78
2019-05-23T17:17:12.441Z,59.84
2019-05-23T17:19:46.394Z,59.03
2019-05-23T17:22:26.415Z,59.12
2019-05-23T17:25:14.218Z,59.57
2019-05-23T17:27:45.593Z,59.39
2019-05-23T17:30:26.160Z,59.26
2019-05-23T17:32:56.158Z,59.52
2019-05-23T17:35:25.979Z,59.53
2019-05-23T17:37:55.606Z,59.54
2019-05-23T17:40:26.475Z,59.82
2019-05-23T17:42:56.461Z,59.75
2019-05-23T17:45:26.316Z,60.11
2019-05-23T17:47:57.615Z,60.27
2019-05-23T17:50:28.880Z,60.39
2019-05-23T17:52:58.598Z,60.51
2019-05-23T17:55:29.027Z,60.42
2019-05-23T17:57:58.758Z,60.71
2019-05-23T18:00:30.032Z,60.77
2019-05-23T18:02:59.781Z,60.71
2019-05-23T18:05:29.476Z,60.81
2019-05-23T18:07:59.742Z,60.85
2019-05-23T18:10:43.733Z,60.90
2019-05-23T18:13:01.753Z,60.92
2019-05-23T18:15:31.640Z,61.12
2019-05-23T18:18:02.244Z,61.45
2019-05-23T18:20:33.017Z,61.39
2019-05-23T18:23:03.669Z,61.48
2019-05-23T18:25:33.831Z,61.43
2019-05-23T18:28:04.624Z,61.50
2019-05-23T18:30:35.963Z,61.91
2019-05-23T18:33:07.211Z,62.04
2019-05-23T18:35:37.366Z,62.17
2019-05-23T18:38:14.315Z,62.30
2019-05-23T18:41:01.675Z,62.27
2019-05-23T18:43:19.648Z,62.44
2019-05-23T18:45:51.104Z,62.45
2019-05-23T18:48:21.230Z,62.59
2019-05-23T18:50:51.373Z,62.57
2019-05-23T18:53:21.238Z,62.28
2019-05-23T18:55:51.115Z,62.22
2019-05-23T18:58:20.944Z,62.39
2019-05-23T19:01:00.875Z,62.22
2019-05-23T19:03:31.418Z,62.17
2019-05-23T19:06:01.122Z,62.34
2019-05-23T19:08:31.245Z,62.44
2019-05-23T19:11:01.288Z,62.00
2019-05-23T19:13:30.914Z,61.60
2019-05-23T19:16:00.547Z,61.70
2019-05-23T19:18:32.623Z,62.07
2019-05-23T19:21:02.419Z,62.49
2019-05-23T19:23:33.898Z,62.63
2019-05-23T19:26:04.115Z,62.79
2019-05-23T19:28:34.678Z,62.89
2019-05-23T19:31:04.827Z,63.00
2019-05-23T19:33:35.722Z,63.04
2019-05-23T19:36:06.515Z,63.04
2019-05-23T19:38:36.089Z,63.16
2019-05-23T19:41:06.031Z,63.25
2019-05-23T19:43:35.648Z,63.35
2019-05-23T19:46:05.668Z,63.54
2019-05-23T19:48:37.011Z,63.85
2019-05-23T19:51:07.177Z,64.22
2019-05-23T19:53:36.808Z,64.53
2019-05-23T19:56:07.130Z,64.81
2019-05-23T19:58:36.964Z,64.88
2019-05-23T20:01:07.315Z,64.98
2019-05-23T20:03:37.076Z,65.29
2019-05-23T20:06:08.791Z,65.40
2019-05-23T20:08:38.896Z,65.51
2019-05-23T20:11:10.406Z,65.98
2019-05-23T20:13:40.362Z,66.19
2019-05-23T20:16:10.530Z,66.45
2019-05-23T20:18:40.632Z,66.62
2019-05-23T20:21:10.752Z,67.14
2019-05-23T20:23:40.460Z,67.42
2019-05-23T20:26:10.769Z,67.61
2019-05-23T20:28:40.554Z,67.70
2019-05-23T20:31:10.180Z,67.69
2019-05-23T20:33:40.317Z,68.00
2019-05-23T20:36:12.676Z,68.17
2019-05-23T20:38:42.404Z,68.04
2019-05-23T20:41:12.447Z,68.28
2019-05-23T20:43:42.107Z,68.39
2019-05-23T20:46:13.343Z,68.55
2019-05-23T20:48:43.044Z,68.88
2019-05-23T20:51:12.772Z,69.03
2019-05-23T20:53:43.145Z,69.14
2019-05-23T20:56:22.228Z,69.48
2019-05-23T20:58:52.048Z,69.53
2019-05-23T21:01:23.411Z,69.60
2019-05-23T21:03:54.148Z,69.77
2019-05-23T21:06:26.606Z,69.94
2019-05-23T21:08:56.241Z,70.09
2019-05-23T21:11:27.450Z,70.12
2019-05-23T21:13:57.746Z,70.48
2019-05-23T21:16:28.339Z,70.54
2019-05-23T21:18:58.012Z,70.84
2019-05-23T21:21:29.021Z,70.69
2019-05-23T21:23:58.676Z,70.61
2019-05-23T21:26:28.393Z,71.03
2019-05-23T21:28:58.443Z,71.02
2019-05-23T21:31:28.304Z,71.20
2019-05-23T21:33:58.022Z,71.52
2019-05-23T21:36:27.773Z,71.64
2019-05-23T21:38:57.512Z,71.62
2019-05-23T21:41:28.201Z,71.65
2019-05-23T21:43:59.949Z,71.79
2019-05-23T21:46:29.588Z,71.96
2019-05-23T21:48:59.293Z,71.84
2019-05-23T21:51:28.978Z,72.01
2019-05-23T21:53:58.753Z,72.48
2019-05-23T21:56:28.471Z,72.38
2019-05-23T21:58:58.103Z,72.40
2019-05-23T22:01:29.528Z,72.36
2019-05-23T22:04:18.796Z,72.37
2019-05-23T22:06:50.214Z,72.53
2019-05-23T22:09:21.459Z,72.57
2019-05-23T22:11:52.791Z,72.72
2019-05-23T22:14:22.549Z,72.79
2019-05-23T22:16:52.754Z,72.96
2019-05-23T22:19:23.959Z,72.89
2019-05-23T22:21:54.410Z,72.95
2019-05-23T22:24:24.029Z,73.01
2019-05-23T22:26:53.690Z,73.17
2019-05-23T22:29:24.083Z,73.35
2019-05-23T22:31:56.534Z,73.27
2019-05-23T22:34:33.157Z,73.28
2019-05-23T22:37:03.842Z,73.14
2019-05-23T22:39:33.599Z,73.31
2019-05-23T22:42:05.999Z,73.52
2019-05-23T22:44:36.334Z,73.73
2019-05-23T22:47:06.036Z,73.68
2019-05-23T22:49:36.077Z,73.86
2019-05-23T22:52:06.385Z,73.83
2019-05-23T22:54:36.019Z,73.98
2019-05-23T22:57:06.010Z,74.07
2019-05-23T22:59:36.005Z,74.09
2019-05-23T23:02:07.266Z,74.28
2019-05-23T23:04:37.187Z,74.33
2019-05-23T23:07:06.895Z,74.47
2019-05-23T23:09:36.540Z,74.44
2019-05-23T23:12:06.236Z,74.65
2019-05-23T23:14:35.931Z,74.70
2019-05-23T23:17:05.996Z,74.74
2019-05-23T23:19:36.015Z,74.51
2019-05-23T23:22:07.683Z,74.56
2019-05-23T23:24:37.313Z,74.62
2019-05-23T23:27:07.666Z,74.77
2019-05-23T23:29:38.010Z,74.66
2019-05-23T23:32:08.312Z,74.71
2019-05-23T23:34:37.955Z,74.77
2019-05-23T23:37:07.572Z,74.79
2019-05-23T23:39:38.870Z,74.71
2019-05-23T23:42:08.782Z,74.98
2019-05-23T23:44:37.681Z,74.92
2019-05-23T23:47:25.303Z,75.28
2019-05-23T23:50:12.966Z,75.45
2019-05-23T23:52:59.946Z,75.32
2019-05-23T23:55:47.274Z,75.41
2019-05-23T23:58:16.192Z,75.56
